Página principal
METAR-TAF:

METAR-TAF

Aeroportos :

Wallis, França

latitude: 13-14S, longitude: 176-10W, altura: 23 m

METAR: em falta

Hora: 03:50 (15:50 UTC)

Previsão

O boletim foi feito há 4 horas e 50 minutos, às 11:00 UTC
Previsão válida de 23 às 12 UTC a 24 às 12 UTC
Vento 5 kt de sudeste
Visibilidade 10 km ou mais
Poucas nuvensa uma altura de 2000 ft
Probabilidade 30% :
Temporariamente
de 24 às 10 UTC a 24 às 12 UTC
aguaceiros de chuva

TAF: NLWW 231100Z 2312/2412 14005KT 9999 FEW020 PROB30 TEMPO 2410/2412 SHRA

Observações e previsões do tempo de mais de 4000 aeroportos (mensagens METAR e TAF).

As estações disponíveis são os pontos amarelos e vermelhos sobre o mapa.

Mova o rato sobre o mapa para ver o nome da estação.

Depois clique no ponto para visualizar as observações e previsões meteorológicas.

Para alterar o mapa : clique nos botões verdes com uma cruz preta para aumentar o zoom; no botão verde com uma pitada de zoom; ou nas setas verdes para mapas adjacentes.


METAR-TAF: